Time,TemperatureF,DewpointF,PressureIn,WindDirection,WindDirectionDegrees,WindSpeedMPH,WindSpeedGustMPH,Humidity,HourlyPrecipIn,Conditions,Clouds,dailyrainin,SoftwareType,DateUTC
2013-01-11 00:00:00,51.0,51.0,30.26,WSW,248,1.0,4.0,100,0.10,,,0.00,Weather View 32 v70,2013-01-11 05:00:00,
2013-01-11 00:01:00,51.0,51.0,30.26,East,90,0.0,4.0,100,0.10,,,0.00,Weather View 32 v70,2013-01-11 05:01:00,
2013-01-11 00:03:00,51.0,51.0,30.26,WNW,292,0.0,4.0,100,0.10,,,0.00,Weather View 32 v70,2013-01-11 05:03:00,
2013-01-11 00:04:00,51.0,51.0,30.26,NNE,22,1.0,4.0,100,0.10,,,0.01,Weather View 32 v70,2013-01-11 05:04:00,
2013-01-11 00:09:00,50.0,50.0,30.26,North,0,3.0,4.0,100,0.11,,,0.02,Weather View 32 v70,2013-01-11 05:09:00,
2013-01-11 00:14:00,50.0,50.0,30.26,ESE,112,0.0,4.0,100,0.11,,,0.03,Weather View 32 v70,2013-01-11 05:14:00,
2013-01-11 00:19:00,50.0,50.0,30.25,NNE,22,2.0,4.0,100,0.10,,,0.03,Weather View 32 v70,2013-01-11 05:19:00,
2013-01-11 00:24:00,50.0,50.0,30.26,ENE,68,1.0,4.0,100,0.09,,,0.03,Weather View 32 v70,2013-01-11 05:24:00,
2013-01-11 00:29:00,50.0,50.0,30.26,East,90,0.0,4.0,100,0.08,,,0.04,Weather View 32 v70,2013-01-11 05:29:00,
2013-01-11 00:34:00,50.0,50.0,30.26,ESE,112,1.0,5.0,100,0.06,,,0.04,Weather View 32 v70,2013-01-11 05:34:00,
2013-01-11 00:39:00,50.0,50.0,30.25,ENE,68,0.0,5.0,100,0.06,,,0.04,Weather View 32 v70,2013-01-11 05:39:00,
2013-01-11 00:44:00,50.0,50.0,30.26,ESE,112,0.0,5.0,100,0.05,,,0.04,Weather View 32 v70,2013-01-11 05:44:00,
2013-01-11 00:49:00,49.0,49.0,30.25,NE,45,2.0,5.0,100,0.05,,,0.04,Weather View 32 v70,2013-01-11 05:49:00,
2013-01-11 00:54:00,49.0,49.0,30.25,NNE,22,1.0,5.0,100,0.04,,,0.04,Weather View 32 v70,2013-01-11 05:54:00,
2013-01-11 00:59:00,49.0,49.0,30.25,SE,135,0.0,5.0,100,0.04,,,0.04,Weather View 32 v70,2013-01-11 05:59:00,
2013-01-11 01:04:00,49.0,49.0,30.24,NE,45,2.0,5.0,100,0.03,,,0.04,Weather View 32 v70,2013-01-11 06:04:00,
2013-01-11 01:09:00,49.0,49.0,30.24,ENE,68,1.0,5.0,100,0.02,,,0.04,Weather View 32 v70,2013-01-11 06:09:00,
2013-01-11 01:14:00,49.0,49.0,30.24,ENE,68,3.0,5.0,100,0.01,,,0.04,Weather View 32 v70,2013-01-11 06:14:00,
2013-01-11 01:19:00,49.0,49.0,30.24,NNE,22,3.0,5.0,100,0.01,,,0.04,Weather View 32 v70,2013-01-11 06:19:00,
2013-01-11 01:24:00,49.0,49.0,30.24,ESE,112,0.0,5.0,100,0.01,,,0.04,Weather View 32 v70,2013-01-11 06:24:00,
2013-01-11 01:29:00,49.0,49.0,30.23,ENE,68,3.0,5.0,100,0.00,,,0.04,Weather View 32 v70,2013-01-11 06:29:00,
2013-01-11 01:34:00,49.0,49.0,30.23,NNE,22,2.0,4.0,100,0.01,,,0.05,Weather View 32 v70,2013-01-11 06:34:00,
2013-01-11 01:39:00,49.0,49.0,30.22,NE,45,0.0,4.0,100,0.01,,,0.05,Weather View 32 v70,2013-01-11 06:39:00,
2013-01-11 01:44:00,49.0,49.0,30.22,East,90,0.0,4.0,100,0.01,,,0.05,Weather View 32 v70,2013-01-11 06:44:00,
2013-01-11 01:49:00,48.0,48.0,30.22,NNE,22,3.0,4.0,100,0.01,,,0.05,Weather View 32 v70,2013-01-11 06:49:00,
2013-01-11 01:54:00,48.0,48.0,30.22,NE,45,2.0,5.0,100,0.01,,,0.05,Weather View 32 v70,2013-01-11 06:54:00,
2013-01-11 01:59:00,48.0,48.0,30.22,North,0,1.0,5.0,100,0.02,,,0.06,Weather View 32 v70,2013-01-11 06:59:00,
2013-01-11 02:04:00,48.0,48.0,30.22,NE,45,1.0,5.0,100,0.02,,,0.06,Weather View 32 v70,2013-01-11 07:04:00,
2013-01-11 02:09:00,48.0,48.0,30.22,ESE,112,0.0,5.0,100,0.02,,,0.06,Weather View 32 v70,2013-01-11 07:09:00,
2013-01-11 02:14:00,48.0,48.0,30.22,NE,45,0.0,5.0,100,0.03,,,0.07,Weather View 32 v70,2013-01-11 07:14:00,
2013-01-11 02:19:00,48.0,48.0,30.21,NE,45,2.0,5.0,100,0.03,,,0.07,Weather View 32 v70,2013-01-11 07:19:00,
2013-01-11 02:24:00,48.0,48.0,30.21,East,90,0.0,5.0,100,0.04,,,0.08,Weather View 32 v70,2013-01-11 07:24:00,
2013-01-11 02:29:00,48.0,48.0,30.21,NE,45,2.0,5.0,100,0.04,,,0.08,Weather View 32 v70,2013-01-11 07:29:00,
2013-01-11 02:34:00,48.0,48.0,30.20,ENE,68,4.0,5.0,100,0.03,,,0.08,Weather View 32 v70,2013-01-11 07:34:00,
2013-01-11 02:39:00,48.0,48.0,30.21,East,90,2.0,5.0,100,0.03,,,0.08,Weather View 32 v70,2013-01-11 07:39:00,
2013-01-11 02:44:00,48.0,48.0,30.20,ENE,68,2.0,5.0,100,0.03,,,0.08,Weather View 32 v70,2013-01-11 07:44:00,
2013-01-11 02:49:00,48.0,48.0,30.20,East,90,1.0,5.0,100,0.03,,,0.08,Weather View 32 v70,2013-01-11 07:49:00,
2013-01-11 02:54:00,49.0,49.0,30.20,North,0,0.0,5.0,100,0.03,,,0.08,Weather View 32 v70,2013-01-11 07:54:00,
2013-01-11 02:59:00,48.0,48.0,30.21,ESE,112,0.0,5.0,100,0.02,,,0.08,Weather View 32 v70,2013-01-11 07:59:00,
2013-01-11 03:04:00,48.0,48.0,30.20,ENE,68,3.0,5.0,100,0.03,,,0.09,Weather View 32 v70,2013-01-11 08:04:00,
2013-01-11 03:09:00,48.0,48.0,30.20,NE,45,3.0,5.0,100,0.04,,,0.10,Weather View 32 v70,2013-01-11 08:09:00,
2013-01-11 03:14:00,48.0,48.0,30.20,ENE,68,3.0,5.0,100,0.04,,,0.11,Weather View 32 v70,2013-01-11 08:14:00,
2013-01-11 03:19:00,48.0,48.0,30.20,ENE,68,2.0,5.0,100,0.04,,,0.11,Weather View 32 v70,2013-01-11 08:19:00,
2013-01-11 03:24:00,48.0,48.0,30.19,NE,45,3.0,5.0,100,0.03,,,0.11,Weather View 32 v70,2013-01-11 08:24:00,
2013-01-11 03:29:00,48.0,48.0,30.18,ENE,68,3.0,5.0,100,0.04,,,0.12,Weather View 32 v70,2013-01-11 08:29:00,
2013-01-11 03:34:00,48.0,48.0,30.18,WSW,248,1.0,5.0,100,0.04,,,0.12,Weather View 32 v70,2013-01-11 08:34:00,
2013-01-11 03:39:00,48.0,48.0,30.18,SE,135,1.0,5.0,100,0.05,,,0.13,Weather View 32 v70,2013-01-11 08:39:00,
2013-01-11 03:44:00,48.0,48.0,30.17,NNE,22,2.0,5.0,100,0.06,,,0.14,Weather View 32 v70,2013-01-11 08:44:00,
2013-01-11 03:49:00,48.0,48.0,30.18,ESE,112,0.0,5.0,100,0.06,,,0.14,Weather View 32 v70,2013-01-11 08:49:00,
2013-01-11 03:54:00,48.0,48.0,30.17,SE,135,0.0,5.0,100,0.07,,,0.15,Weather View 32 v70,2013-01-11 08:54:00,
2013-01-11 03:59:00,48.0,48.0,30.17,ENE,68,3.0,5.0,100,0.07,,,0.15,Weather View 32 v70,2013-01-11 08:59:00,
2013-01-11 04:04:00,48.0,48.0,30.18,ENE,68,0.0,5.0,100,0.07,,,0.16,Weather View 32 v70,2013-01-11 09:04:00,
2013-01-11 04:09:00,48.0,48.0,30.18,SE,135,0.0,5.0,100,0.07,,,0.17,Weather View 32 v70,2013-01-11 09:09:00,
2013-01-11 04:14:00,48.0,48.0,30.17,SE,135,0.0,5.0,100,0.06,,,0.17,Weather View 32 v70,2013-01-11 09:14:00,
2013-01-11 04:19:00,48.0,48.0,30.18,West,270,1.0,5.0,100,0.06,,,0.18,Weather View 32 v70,2013-01-11 09:19:00,
2013-01-11 04:24:00,48.0,48.0,30.17,East,90,3.0,5.0,100,0.12,,,0.23,Weather View 32 v70,2013-01-11 09:24:00,
2013-01-11 04:29:00,48.0,48.0,30.17,ESE,112,3.0,5.0,100,0.12,,,0.25,Weather View 32 v70,2013-01-11 09:29:00,
2013-01-11 04:34:00,49.0,49.0,30.18,ESE,112,0.0,5.0,100,0.13,,,0.25,Weather View 32 v70,2013-01-11 09:34:00,
2013-01-11 04:39:00,49.0,49.0,30.17,NE,45,0.0,5.0,100,0.12,,,0.25,Weather View 32 v70,2013-01-11 09:39:00,
2013-01-11 04:44:00,49.0,49.0,30.18,SSE,158,0.0,5.0,100,0.11,,,0.25,Weather View 32 v70,2013-01-11 09:44:00,
2013-01-11 04:49:00,49.0,49.0,30.18,SE,135,0.0,5.0,100,0.11,,,0.25,Weather View 32 v70,2013-01-11 09:49:00,
2013-01-11 04:54:00,49.0,49.0,30.18,East,90,2.0,5.0,100,0.12,,,0.27,Weather View 32 v70,2013-01-11 09:54:00,
2013-01-11 04:59:00,49.0,49.0,30.18,SSE,158,0.0,4.0,100,0.12,,,0.27,Weather View 32 v70,2013-01-11 09:59:00,
2013-01-11 05:04:00,49.0,49.0,30.18,ESE,112,0.0,4.0,100,0.11,,,0.27,Weather View 32 v70,2013-01-11 10:04:00,
2013-01-11 05:10:00,49.0,49.0,30.17,East,90,0.0,4.0,100,0.10,,,0.27,Weather View 32 v70,2013-01-11 10:10:00,
2013-01-11 05:15:00,49.0,49.0,30.16,NNE,22,3.0,4.0,100,0.10,,,0.27,Weather View 32 v70,2013-01-11 10:15:00,
2013-01-11 05:20:00,49.0,49.0,30.15,ENE,68,0.0,4.0,100,0.11,,,0.28,Weather View 32 v70,2013-01-11 10:20:00,
2013-01-11 05:25:00,49.0,49.0,30.15,ESE,112,0.0,5.0,100,0.05,,,0.29,Weather View 32 v70,2013-01-11 10:25:00,
2013-01-11 05:30:00,49.0,49.0,30.15,South,180,1.0,5.0,100,0.05,,,0.29,Weather View 32 v70,2013-01-11 10:30:00,
2013-01-11 05:35:00,49.0,49.0,30.15,ENE,68,1.0,5.0,100,0.05,,,0.30,Weather View 32 v70,2013-01-11 10:35:00,
2013-01-11 05:40:00,49.0,49.0,30.15,NE,45,1.0,5.0,100,0.06,,,0.31,Weather View 32 v70,2013-01-11 10:40:00,
2013-01-11 05:45:00,49.0,49.0,30.14,NNE,22,3.0,5.0,100,0.06,,,0.31,Weather View 32 v70,2013-01-11 10:45:00,
2013-01-11 05:50:00,49.0,49.0,30.14,NNE,22,4.0,5.0,100,0.08,,,0.33,Weather View 32 v70,2013-01-11 10:50:00,
2013-01-11 05:55:00,49.0,49.0,30.15,SE,135,0.0,6.0,100,0.06,,,0.33,Weather View 32 v70,2013-01-11 10:55:00,
2013-01-11 06:00:00,49.0,49.0,30.15,North,0,3.0,6.0,100,0.07,,,0.34,Weather View 32 v70,2013-01-11 11:00:00,
2013-01-11 06:05:00,49.0,49.0,30.14,ENE,68,3.0,6.0,100,0.07,,,0.35,Weather View 32 v70,2013-01-11 11:05:00,
2013-01-11 06:10:00,49.0,49.0,30.14,North,0,0.0,6.0,100,0.11,,,0.38,Weather View 32 v70,2013-01-11 11:10:00,
2013-01-11 06:15:00,49.0,49.0,30.14,ESE,112,0.0,6.0,100,0.14,,,0.41,Weather View 32 v70,2013-01-11 11:15:00,
2013-01-11 06:20:00,49.0,49.0,30.14,WNW,292,3.0,6.0,100,0.13,,,0.41,Weather View 32 v70,2013-01-11 11:20:00,
2013-01-11 06:25:00,49.0,49.0,30.15,WSW,248,0.0,6.0,100,0.14,,,0.42,Weather View 32 v70,2013-01-11 11:25:00,
2013-01-11 06:30:00,49.0,49.0,30.16,ESE,112,0.0,6.0,100,0.13,,,0.42,Weather View 32 v70,2013-01-11 11:30:00,
2013-01-11 06:35:00,49.0,49.0,30.16,SE,135,0.0,6.0,100,0.12,,,0.43,Weather View 32 v70,2013-01-11 11:35:00,
2013-01-11 06:40:00,49.0,49.0,30.16,East,90,0.0,6.0,100,0.13,,,0.44,Weather View 32 v70,2013-01-11 11:40:00,
2013-01-11 06:45:00,49.0,49.0,30.16,ENE,68,1.0,6.0,100,0.14,,,0.45,Weather View 32 v70,2013-01-11 11:45:00,
2013-01-11 06:50:00,49.0,49.0,30.15,ENE,68,2.0,6.0,100,0.13,,,0.47,Weather View 32 v70,2013-01-11 11:50:00,
2013-01-11 06:55:00,49.0,49.0,30.16,ENE,68,1.0,4.0,100,0.15,,,0.48,Weather View 32 v70,2013-01-11 11:55:00,
2013-01-11 07:00:00,49.0,49.0,30.15,ENE,68,4.0,5.0,100,0.15,,,0.49,Weather View 32 v70,2013-01-11 12:00:00,
2013-01-11 07:05:00,49.0,49.0,30.16,East,90,2.0,5.0,100,0.15,,,0.49,Weather View 32 v70,2013-01-11 12:05:00,
2013-01-11 07:10:00,49.0,49.0,30.15,SE,135,0.0,5.0,100,0.12,,,0.50,Weather View 32 v70,2013-01-11 12:10:00,
2013-01-11 07:15:00,49.0,49.0,30.15,ESE,112,0.0,5.0,100,0.10,,,0.51,Weather View 32 v70,2013-01-11 12:15:00,
2013-01-11 07:20:00,49.0,49.0,30.15,ESE,112,0.0,5.0,100,0.12,,,0.53,Weather View 32 v70,2013-01-11 12:20:00,
2013-01-11 07:25:00,49.0,49.0,30.15,SE,135,3.0,6.0,100,0.12,,,0.55,Weather View 32 v70,2013-01-11 12:25:00,
2013-01-11 07:30:00,49.0,49.0,30.15,SSE,158,0.0,6.0,100,0.13,,,0.55,Weather View 32 v70,2013-01-11 12:30:00,
2013-01-11 07:35:00,50.0,50.0,30.14,NE,45,2.0,6.0,100,0.14,,,0.57,Weather View 32 v70,2013-01-11 12:35:00,
2013-01-11 07:40:00,49.0,49.0,30.15,ESE,112,0.0,6.0,100,0.13,,,0.57,Weather View 32 v70,2013-01-11 12:40:00,
2013-01-11 07:45:00,49.0,49.0,30.15,ESE,112,0.0,6.0,100,0.13,,,0.58,Weather View 32 v70,2013-01-11 12:45:00,
2013-01-11 07:50:00,49.0,49.0,30.16,ENE,68,1.0,6.0,100,0.12,,,0.58,Weather View 32 v70,2013-01-11 12:50:00,
2013-01-11 07:55:00,49.0,49.0,30.15,East,90,0.0,6.0,100,0.11,,,0.59,Weather View 32 v70,2013-01-11 12:55:00,
2013-01-11 08:00:00,49.0,49.0,30.15,West,270,0.0,6.0,100,0.12,,,0.61,Weather View 32 v70,2013-01-11 13:00:00,
2013-01-11 08:05:00,49.0,49.0,30.16,SSE,158,0.0,6.0,100,0.12,,,0.61,Weather View 32 v70,2013-01-11 13:05:00,
2013-01-11 08:10:00,49.0,49.0,30.16,East,90,0.0,6.0,100,0.13,,,0.63,Weather View 32 v70,2013-01-11 13:10:00,
2013-01-11 08:15:00,49.0,49.0,30.16,NE,45,0.0,6.0,100,0.13,,,0.64,Weather View 32 v70,2013-01-11 13:15:00,
2013-01-11 08:20:00,49.0,49.0,30.16,NE,45,3.0,6.0,100,0.12,,,0.65,Weather View 32 v70,2013-01-11 13:20:00,
2013-01-11 08:25:00,49.0,49.0,30.16,NNE,22,2.0,6.0,100,0.11,,,0.66,Weather View 32 v70,2013-01-11 13:25:00,
2013-01-11 08:30:00,49.0,49.0,30.17,ENE,68,3.0,6.0,100,0.11,,,0.66,Weather View 32 v70,2013-01-11 13:30:00,
2013-01-11 08:35:00,49.0,49.0,30.17,ENE,68,3.0,6.0,100,0.10,,,0.67,Weather View 32 v70,2013-01-11 13:35:00,
2013-01-11 08:40:00,49.0,49.0,30.17,NNE,22,0.0,6.0,100,0.11,,,0.68,Weather View 32 v70,2013-01-11 13:40:00,
2013-01-11 08:45:00,49.0,49.0,30.17,NNE,22,0.0,5.0,100,0.11,,,0.69,Weather View 32 v70,2013-01-11 13:45:00,
2013-01-11 08:50:00,48.0,48.0,30.17,East,90,0.0,5.0,100,0.11,,,0.69,Weather View 32 v70,2013-01-11 13:50:00,
2013-01-11 08:55:00,48.0,48.0,30.17,ESE,112,1.0,5.0,100,0.12,,,0.71,Weather View 32 v70,2013-01-11 13:55:00,
2013-01-11 09:00:00,48.0,48.0,30.18,NNW,338,0.0,5.0,100,0.11,,,0.72,Weather View 32 v70,2013-01-11 14:00:00,
2013-01-11 09:06:00,48.0,48.0,30.18,ESE,112,0.0,5.0,100,0.12,,,0.73,Weather View 32 v70,2013-01-11 14:06:00,
2013-01-11 09:11:00,49.0,49.0,30.17,ESE,112,0.0,5.0,100,0.11,,,0.74,Weather View 32 v70,2013-01-11 14:11:00,
2013-01-11 09:16:00,48.0,48.0,30.18,East,90,0.0,5.0,100,0.11,,,0.75,Weather View 32 v70,2013-01-11 14:16:00,
2013-01-11 09:21:00,48.0,48.0,30.18,South,180,0.0,5.0,100,0.14,,,0.79,Weather View 32 v70,2013-01-11 14:21:00,
2013-01-11 09:26:00,48.0,48.0,30.18,ENE,68,1.0,5.0,100,0.14,,,0.80,Weather View 32 v70,2013-01-11 14:26:00,
2013-01-11 09:31:00,49.0,49.0,30.18,ENE,68,0.0,5.0,100,0.15,,,0.81,Weather View 32 v70,2013-01-11 14:31:00,
2013-01-11 09:36:00,49.0,49.0,30.18,East,90,1.0,3.0,100,0.14,,,0.81,Weather View 32 v70,2013-01-11 14:36:00,
2013-01-11 09:41:00,49.0,49.0,30.18,ENE,68,0.0,3.0,100,0.15,,,0.83,Weather View 32 v70,2013-01-11 14:41:00,
2013-01-11 09:46:00,49.0,49.0,30.18,NE,45,2.0,3.0,100,0.14,,,0.83,Weather View 32 v70,2013-01-11 14:46:00,
2013-01-11 09:51:00,49.0,49.0,30.18,NNE,22,1.0,3.0,100,0.14,,,0.83,Weather View 32 v70,2013-01-11 14:51:00,
2013-01-11 09:56:00,48.0,48.0,30.18,NW,315,1.0,3.0,100,0.12,,,0.84,Weather View 32 v70,2013-01-11 14:56:00,
2013-01-11 10:01:00,49.0,49.0,30.18,East,90,1.0,3.0,100,0.12,,,0.84,Weather View 32 v70,2013-01-11 15:01:00,
2013-01-11 10:06:00,48.0,48.0,30.18,ENE,68,0.0,3.0,100,0.11,,,0.84,Weather View 32 v70,2013-01-11 15:06:00,
2013-01-11 10:11:00,48.0,48.0,30.17,ENE,68,1.0,3.0,100,0.11,,,0.85,Weather View 32 v70,2013-01-11 15:11:00,
2013-01-11 10:16:00,48.0,48.0,30.18,NW,315,0.0,3.0,100,0.10,,,0.85,Weather View 32 v70,2013-01-11 15:16:00,
2013-01-11 10:21:00,49.0,49.0,30.18,NE,45,2.0,3.0,100,0.06,,,0.85,Weather View 32 v70,2013-01-11 15:21:00,
2013-01-11 10:26:00,49.0,49.0,30.18,East,90,0.0,3.0,100,0.06,,,0.86,Weather View 32 v70,2013-01-11 15:26:00,
2013-01-11 10:31:00,49.0,49.0,30.18,NNE,22,1.0,3.0,100,0.06,,,0.87,Weather View 32 v70,2013-01-11 15:31:00,
2013-01-11 10:36:00,49.0,49.0,30.18,NE,45,0.0,3.0,100,0.06,,,0.87,Weather View 32 v70,2013-01-11 15:36:00,
2013-01-11 10:41:00,49.0,49.0,30.18,NNE,22,1.0,3.0,100,0.04,,,0.87,Weather View 32 v70,2013-01-11 15:41:00,
2013-01-11 10:46:00,49.0,49.0,30.17,NNE,22,3.0,3.0,100,0.06,,,0.89,Weather View 32 v70,2013-01-11 15:46:00,
2013-01-11 10:51:00,49.0,49.0,30.17,NE,45,0.0,5.0,100,0.06,,,0.89,Weather View 32 v70,2013-01-11 15:51:00,
2013-01-11 10:56:00,49.0,49.0,30.17,SE,135,0.0,6.0,100,0.05,,,0.89,Weather View 32 v70,2013-01-11 15:56:00,
2013-01-11 11:01:00,49.0,49.0,30.17,North,0,2.0,6.0,100,0.07,,,0.91,Weather View 32 v70,2013-01-11 16:01:00,
2013-01-11 11:06:00,49.0,49.0,30.16,North,0,3.0,6.0,100,0.07,,,0.91,Weather View 32 v70,2013-01-11 16:06:00,
2013-01-11 11:11:00,49.0,49.0,30.16,ESE,112,1.0,6.0,100,0.06,,,0.91,Weather View 32 v70,2013-01-11 16:11:00,
2013-01-11 11:16:00,49.0,49.0,30.16,ESE,112,1.0,6.0,100,0.06,,,0.91,Weather View 32 v70,2013-01-11 16:16:00,
2013-01-11 11:21:00,49.0,49.0,30.16,SSE,158,2.0,6.0,100,0.06,,,0.92,Weather View 32 v70,2013-01-11 16:21:00,
2013-01-11 11:26:00,49.0,49.0,30.15,WNW,292,0.0,6.0,100,0.06,,,0.92,Weather View 32 v70,2013-01-11 16:26:00,
2013-01-11 11:31:00,49.0,49.0,30.15,NNW,338,1.0,6.0,100,0.05,,,0.92,Weather View 32 v70,2013-01-11 16:31:00,
2013-01-11 11:37:00,49.0,49.0,30.14,NE,45,0.0,6.0,100,0.05,,,0.92,Weather View 32 v70,2013-01-11 16:37:00,
2013-01-11 11:42:00,49.0,49.0,30.13,East,90,0.0,6.0,100,0.06,,,0.93,Weather View 32 v70,2013-01-11 16:42:00,
2013-01-11 11:47:00,49.0,49.0,30.13,WSW,248,1.0,6.0,100,0.04,,,0.93,Weather View 32 v70,2013-01-11 16:47:00,
2013-01-11 11:52:00,49.0,49.0,30.13,ENE,68,2.0,6.0,100,0.04,,,0.93,Weather View 32 v70,2013-01-11 16:52:00,
2013-01-11 11:57:00,49.0,49.0,30.13,NE,45,4.0,5.0,100,0.04,,,0.93,Weather View 32 v70,2013-01-11 16:57:00,
2013-01-11 12:02:00,49.0,49.0,30.13,ESE,112,1.0,5.0,100,0.02,,,0.93,Weather View 32 v70,2013-01-11 17:02:00,
2013-01-11 12:07:00,49.0,49.0,30.13,ENE,68,0.0,5.0,100,0.03,,,0.94,Weather View 32 v70,2013-01-11 17:07:00,
2013-01-11 12:12:00,49.0,49.0,30.13,ENE,68,2.0,5.0,100,0.03,,,0.94,Weather View 32 v70,2013-01-11 17:12:00,
2013-01-11 12:17:00,49.0,49.0,30.13,ENE,68,1.0,5.0,100,0.03,,,0.94,Weather View 32 v70,2013-01-11 17:17:00,
2013-01-11 12:22:00,50.0,50.0,30.12,ENE,68,3.0,5.0,100,0.04,,,0.95,Weather View 32 v70,2013-01-11 17:22:00,
2013-01-11 12:27:00,49.0,49.0,30.12,ENE,68,2.0,5.0,100,0.03,,,0.95,Weather View 32 v70,2013-01-11 17:27:00,
2013-01-11 12:32:00,49.0,49.0,30.12,NE,45,3.0,5.0,100,0.03,,,0.95,Weather View 32 v70,2013-01-11 17:32:00,
2013-01-11 12:37:00,49.0,49.0,30.12,ESE,112,1.0,5.0,100,0.03,,,0.96,Weather View 32 v70,2013-01-11 17:37:00,
2013-01-11 12:42:00,49.0,49.0,30.12,ESE,112,0.0,5.0,100,0.03,,,0.96,Weather View 32 v70,2013-01-11 17:42:00,
2013-01-11 12:47:00,49.0,49.0,30.11,ESE,112,2.0,5.0,100,0.03,,,0.96,Weather View 32 v70,2013-01-11 17:47:00,
2013-01-11 12:52:00,50.0,50.0,30.11,NE,45,1.0,5.0,100,0.04,,,0.97,Weather View 32 v70,2013-01-11 17:52:00,
2013-01-11 12:57:00,50.0,50.0,30.10,East,90,1.0,5.0,100,0.04,,,0.97,Weather View 32 v70,2013-01-11 17:57:00,
2013-01-11 13:02:00,50.0,50.0,30.10,NE,45,1.0,5.0,100,0.03,,,0.97,Weather View 32 v70,2013-01-11 18:02:00,
2013-01-11 13:07:00,50.0,50.0,30.10,North,0,2.0,5.0,100,0.03,,,0.97,Weather View 32 v70,2013-01-11 18:07:00,
2013-01-11 13:12:00,51.0,51.0,30.10,East,90,3.0,5.0,100,0.03,,,0.97,Weather View 32 v70,2013-01-11 18:12:00,
2013-01-11 13:17:00,50.0,50.0,30.10,East,90,1.0,5.0,100,0.02,,,0.97,Weather View 32 v70,2013-01-11 18:17:00,
2013-01-11 13:22:00,50.0,50.0,30.10,ENE,68,3.0,5.0,100,0.02,,,0.97,Weather View 32 v70,2013-01-11 18:22:00,
2013-01-11 13:27:00,50.0,50.0,30.09,East,90,3.0,5.0,100,0.02,,,0.97,Weather View 32 v70,2013-01-11 18:27:00,
2013-01-11 13:32:00,50.0,50.0,30.09,East,90,3.0,5.0,100,0.02,,,0.97,Weather View 32 v70,2013-01-11 18:32:00,
2013-01-11 13:37:00,50.0,50.0,30.09,East,90,1.0,5.0,100,0.02,,,0.98,Weather View 32 v70,2013-01-11 18:37:00,
2013-01-11 13:42:00,50.0,50.0,30.09,ENE,68,4.0,5.0,100,0.02,,,0.98,Weather View 32 v70,2013-01-11 18:42:00,
2013-01-11 13:47:00,50.0,50.0,30.09,NNE,22,3.0,5.0,100,0.02,,,0.98,Weather View 32 v70,2013-01-11 18:47:00,
2013-01-11 13:52:00,50.0,50.0,30.09,ENE,68,3.0,5.0,100,0.01,,,0.98,Weather View 32 v70,2013-01-11 18:52:00,
2013-01-11 13:57:00,50.0,50.0,30.09,ENE,68,1.0,5.0,100,0.01,,,0.98,Weather View 32 v70,2013-01-11 18:57:00,
2013-01-11 14:02:00,49.0,49.0,30.09,East,90,2.0,5.0,100,0.01,,,0.98,Weather View 32 v70,2013-01-11 19:02:00,
2013-01-11 14:08:00,50.0,50.0,30.08,ESE,112,1.0,5.0,100,0.01,,,0.98,Weather View 32 v70,2013-01-11 19:08:00,
2013-01-11 14:13:00,50.0,50.0,30.08,ESE,112,3.0,5.0,100,0.01,,,0.98,Weather View 32 v70,2013-01-11 19:13:00,
2013-01-11 14:18:00,50.0,50.0,30.08,East,90,1.0,5.0,100,0.01,,,0.98,Weather View 32 v70,2013-01-11 19:18:00,
2013-01-11 14:23:00,50.0,50.0,30.09,ESE,112,1.0,5.0,100,0.01,,,0.98,Weather View 32 v70,2013-01-11 19:23:00,
2013-01-11 14:28:00,51.0,51.0,30.09,East,90,1.0,5.0,100,0.01,,,0.98,Weather View 32 v70,2013-01-11 19:28:00,
2013-01-11 14:33:00,51.0,51.0,30.09,ESE,112,2.0,5.0,100,0.01,,,0.98,Weather View 32 v70,2013-01-11 19:33:00,
2013-01-11 14:38:00,50.0,50.0,30.09,ESE,112,0.0,5.0,100,0.01,,,0.99,Weather View 32 v70,2013-01-11 19:38:00,
2013-01-11 14:43:00,50.0,50.0,30.09,East,90,1.0,5.0,100,0.01,,,0.99,Weather View 32 v70,2013-01-11 19:43:00,
2013-01-11 14:48:00,51.0,51.0,30.09,ENE,68,1.0,5.0,100,0.01,,,0.99,Weather View 32 v70,2013-01-11 19:48:00,
2013-01-11 14:53:00,50.0,50.0,30.09,East,90,3.0,5.0,100,0.01,,,0.99,Weather View 32 v70,2013-01-11 19:53:00,
2013-01-11 14:58:00,50.0,50.0,30.09,NE,45,3.0,5.0,100,0.01,,,0.99,Weather View 32 v70,2013-01-11 19:58:00,
2013-01-11 15:03:00,50.0,50.0,30.09,ESE,112,1.0,5.0,100,0.01,,,0.99,Weather View 32 v70,2013-01-11 20:03:00,
2013-01-11 15:08:00,50.0,50.0,30.09,ESE,112,3.0,5.0,100,0.01,,,0.99,Weather View 32 v70,2013-01-11 20:08:00,
2013-01-11 15:13:00,50.0,50.0,30.09,SSE,158,0.0,5.0,100,0.01,,,0.99,Weather View 32 v70,2013-01-11 20:13:00,
2013-01-11 15:18:00,50.0,50.0,30.08,ESE,112,2.0,5.0,100,0.01,,,0.99,Weather View 32 v70,2013-01-11 20:18:00,
2013-01-11 15:23:00,50.0,50.0,30.09,SSW,202,0.0,5.0,100,0.01,,,0.99,Weather View 32 v70,2013-01-11 20:23:00,
2013-01-11 15:28:00,50.0,50.0,30.08,ESE,112,0.0,5.0,100,0.01,,,0.99,Weather View 32 v70,2013-01-11 20:28:00,
2013-01-11 15:33:00,50.0,50.0,30.08,NE,45,1.0,5.0,100,0.01,,,0.99,Weather View 32 v70,2013-01-11 20:33:00,
2013-01-11 15:38:00,52.0,52.0,30.08,NW,315,1.0,6.0,100,0.00,,,0.99,Weather View 32 v70,2013-01-11 20:38:00,
2013-01-11 15:43:00,52.0,52.0,30.07,North,0,2.0,6.0,100,0.00,,,0.99,Weather View 32 v70,2013-01-11 20:43:00,
2013-01-11 15:48:00,53.0,53.0,30.07,WSW,248,1.0,7.0,100,0.00,,,0.99,Weather View 32 v70,2013-01-11 20:48:00,
2013-01-11 15:53:00,54.0,54.0,30.08,ESE,112,0.0,7.0,100,0.00,,,0.99,Weather View 32 v70,2013-01-11 20:53:00,
2013-01-11 15:58:00,54.0,54.0,30.08,West,270,2.0,7.0,100,0.00,,,0.99,Weather View 32 v70,2013-01-11 20:58:00,
2013-01-11 16:03:00,55.0,55.0,30.08,SE,135,1.0,7.0,100,0.00,,,0.99,Weather View 32 v70,2013-01-11 21:03:00,
2013-01-11 16:08:00,55.0,55.0,30.08,West,270,2.0,7.0,100,0.00,,,0.99,Weather View 32 v70,2013-01-11 21:08:00,
2013-01-11 16:13:00,55.0,55.0,30.08,WSW,248,3.0,7.0,100,0.00,,,0.99,Weather View 32 v70,2013-01-11 21:13:00,
2013-01-11 16:18:00,55.0,55.0,30.08,WSW,248,1.0,7.0,100,0.00,,,0.99,Weather View 32 v70,2013-01-11 21:18:00,
2013-01-11 16:23:00,54.0,54.0,30.08,SSW,202,1.0,7.0,100,0.00,,,0.99,Weather View 32 v70,2013-01-11 21:23:00,
2013-01-11 16:28:00,54.0,54.0,30.08,NNE,22,0.0,7.0,100,0.00,,,0.99,Weather View 32 v70,2013-01-11 21:28:00,
2013-01-11 16:33:00,54.0,54.0,30.08,SW,225,3.0,7.0,100,0.00,,,0.99,Weather View 32 v70,2013-01-11 21:33:00,
2013-01-11 16:38:00,54.0,54.0,30.08,SW,225,2.0,7.0,100,0.00,,,0.99,Weather View 32 v70,2013-01-11 21:38:00,
2013-01-11 16:43:00,54.0,54.0,30.08,ESE,112,3.0,7.0,100,0.00,,,0.99,Weather View 32 v70,2013-01-11 21:43:00,
2013-01-11 16:49:00,55.0,55.0,30.07,SW,225,5.0,8.0,100,0.00,,,0.99,Weather View 32 v70,2013-01-11 21:49:00,
2013-01-11 16:54:00,55.0,55.0,30.07,WSW,248,3.0,10.0,100,0.00,,,0.99,Weather View 32 v70,2013-01-11 21:54:00,
2013-01-11 16:59:00,55.0,55.0,30.07,NNE,22,3.0,13.0,100,0.00,,,0.99,Weather View 32 v70,2013-01-11 21:59:00,
2013-01-11 17:04:00,56.0,56.0,30.06,SE,135,2.0,16.0,100,0.00,,,0.99,Weather View 32 v70,2013-01-11 22:04:00,
2013-01-11 17:09:00,56.0,56.0,30.06,ESE,112,3.0,16.0,100,0.00,,,0.99,Weather View 32 v70,2013-01-11 22:09:00,
2013-01-11 17:14:00,56.0,56.0,30.06,SSW,202,4.0,16.0,100,0.00,,,0.99,Weather View 32 v70,2013-01-11 22:14:00,
2013-01-11 17:19:00,56.0,56.0,30.06,SSW,202,8.0,16.0,100,0.00,,,0.99,Weather View 32 v70,2013-01-11 22:19:00,
2013-01-11 17:24:00,57.0,57.0,30.06,SE,135,2.0,16.0,100,0.00,,,0.99,Weather View 32 v70,2013-01-11 22:24:00,
2013-01-11 17:29:00,57.0,57.0,30.06,WSW,248,5.0,16.0,100,0.00,,,0.99,Weather View 32 v70,2013-01-11 22:29:00,
2013-01-11 17:34:00,57.0,57.0,30.07,ESE,112,5.0,16.0,100,0.00,,,0.99,Weather View 32 v70,2013-01-11 22:34:00,
2013-01-11 17:39:00,57.0,57.0,30.07,South,180,5.0,16.0,100,0.00,,,0.99,Weather View 32 v70,2013-01-11 22:39:00,
2013-01-11 17:44:00,57.0,57.0,30.07,ESE,112,1.0,16.0,100,0.00,,,0.99,Weather View 32 v70,2013-01-11 22:44:00,
2013-01-11 17:49:00,57.0,57.0,30.07,SSW,202,3.0,16.0,100,0.00,,,1.00,Weather View 32 v70,2013-01-11 22:49:00,
2013-01-11 17:54:00,58.0,58.0,30.08,SSW,202,7.0,16.0,100,0.01,,,1.00,Weather View 32 v70,2013-01-11 22:54:00,
2013-01-11 17:59:00,58.0,58.0,30.08,WSW,248,8.0,16.0,100,0.01,,,1.00,Weather View 32 v70,2013-01-11 22:59:00,
2013-01-11 18:04:00,58.0,58.0,30.08,ESE,112,5.0,16.0,100,0.01,,,1.00,Weather View 32 v70,2013-01-11 23:04:00,
2013-01-11 18:09:00,58.0,58.0,30.08,South,180,4.0,16.0,100,-0.99,,,1.00,Weather View 32 v70,2013-01-11 23:09:00,
2013-01-11 18:14:00,58.0,58.0,30.09,South,180,5.0,16.0,100,0.01,,,1.00,Weather View 32 v70,2013-01-11 23:14:00,
2013-01-11 18:19:00,58.0,58.0,30.09,South,180,0.0,16.0,100,0.01,,,1.00,Weather View 32 v70,2013-01-11 23:19:00,
2013-01-11 18:24:00,58.0,58.0,30.09,SW,225,4.0,16.0,100,0.01,,,1.00,Weather View 32 v70,2013-01-11 23:24:00,
2013-01-11 18:29:00,58.0,58.0,30.09,West,270,4.0,16.0,100,0.01,,,1.00,Weather View 32 v70,2013-01-11 23:29:00,
2013-01-11 18:34:00,58.0,58.0,30.09,SW,225,6.0,16.0,100,0.01,,,1.00,Weather View 32 v70,2013-01-11 23:34:00,
2013-01-11 18:39:00,59.0,59.0,30.10,SSE,158,1.0,16.0,100,0.01,,,1.00,Weather View 32 v70,2013-01-11 23:39:00,
2013-01-11 18:44:00,59.0,59.0,30.10,SSW,202,7.0,16.0,100,0.02,,,1.01,Weather View 32 v70,2013-01-11 23:44:00,
2013-01-11 18:49:00,59.0,59.0,30.10,SSW,202,5.0,16.0,100,0.01,,,1.01,Weather View 32 v70,2013-01-11 23:49:00,
2013-01-11 18:54:00,59.0,59.0,30.10,ENE,68,3.0,13.0,100,0.01,,,1.01,Weather View 32 v70,2013-01-11 23:54:00,
2013-01-11 18:59:00,59.0,59.0,30.10,SSW,202,3.0,13.0,100,0.01,,,1.01,Weather View 32 v70,2013-01-11 23:59:00,
2013-01-11 19:04:00,59.0,59.0,30.10,SSW,202,6.0,13.0,100,0.01,,,1.01,Weather View 32 v70,2013-01-12 00:04:00,
2013-01-11 19:09:00,59.0,59.0,30.10,WSW,248,3.0,11.0,100,0.01,,,1.01,Weather View 32 v70,2013-01-12 00:09:00,
2013-01-11 19:14:00,59.0,59.0,30.10,SSW,202,7.0,11.0,100,0.01,,,1.01,Weather View 32 v70,2013-01-12 00:14:00,
2013-01-11 19:19:00,59.0,59.0,30.10,SW,225,8.0,11.0,100,0.01,,,1.01,Weather View 32 v70,2013-01-12 00:19:00,
2013-01-11 19:24:00,59.0,59.0,30.10,SSW,202,5.0,11.0,100,0.01,,,1.01,Weather View 32 v70,2013-01-12 00:24:00,
2013-01-11 19:30:00,59.0,59.0,30.10,WSW,248,5.0,11.0,100,0.01,,,1.02,Weather View 32 v70,2013-01-12 00:30:00,
2013-01-11 19:35:00,59.0,59.0,30.10,SW,225,3.0,11.0,100,0.02,,,1.02,Weather View 32 v70,2013-01-12 00:35:00,
2013-01-11 19:40:00,59.0,59.0,30.10,SSW,202,3.0,11.0,100,0.02,,,1.02,Weather View 32 v70,2013-01-12 00:40:00,
2013-01-11 19:45:00,59.0,59.0,30.10,West,270,6.0,11.0,100,0.01,,,1.02,Weather View 32 v70,2013-01-12 00:45:00,
2013-01-11 19:50:00,59.0,59.0,30.10,ESE,112,3.0,11.0,100,0.01,,,1.02,Weather View 32 v70,2013-01-12 00:50:00,
2013-01-11 19:55:00,60.0,60.0,30.10,NNW,338,1.0,12.0,100,0.01,,,1.02,Weather View 32 v70,2013-01-12 00:55:00,
2013-01-11 20:00:00,60.0,60.0,30.09,East,90,4.0,12.0,100,0.01,,,1.02,Weather View 32 v70,2013-01-12 01:00:00,
2013-01-11 20:05:00,60.0,60.0,30.09,SSW,202,8.0,13.0,100,0.01,,,1.02,Weather View 32 v70,2013-01-12 01:05:00,
2013-01-11 20:10:00,60.0,60.0,30.09,SE,135,2.0,13.0,100,0.01,,,1.02,Weather View 32 v70,2013-01-12 01:10:00,
2013-01-11 20:15:00,60.0,60.0,30.09,SW,225,7.0,13.0,100,0.01,,,1.02,Weather View 32 v70,2013-01-12 01:15:00,
2013-01-11 20:20:00,60.0,60.0,30.09,SW,225,10.0,15.0,100,0.01,,,1.02,Weather View 32 v70,2013-01-12 01:20:00,
2013-01-11 20:25:00,59.0,59.0,30.09,SSW,202,5.0,15.0,100,0.01,,,1.02,Weather View 32 v70,2013-01-12 01:25:00,
2013-01-11 20:30:00,59.0,59.0,30.09,WSW,248,5.0,15.0,100,0.01,,,1.03,Weather View 32 v70,2013-01-12 01:30:00,
2013-01-11 20:35:00,59.0,59.0,30.09,SSW,202,6.0,15.0,100,0.01,,,1.03,Weather View 32 v70,2013-01-12 01:35:00,
2013-01-11 20:40:00,59.0,59.0,30.09,SSE,158,3.0,15.0,100,0.01,,,1.03,Weather View 32 v70,2013-01-12 01:40:00,
2013-01-11 20:45:00,60.0,60.0,30.09,SSW,202,4.0,15.0,100,0.01,,,1.03,Weather View 32 v70,2013-01-12 01:45:00,
2013-01-11 20:50:00,60.0,60.0,30.09,SE,135,1.0,15.0,100,0.01,,,1.03,Weather View 32 v70,2013-01-12 01:50:00,
2013-01-11 20:55:00,60.0,60.0,30.09,SW,225,5.0,15.0,100,-1.02,,,1.04,Weather View 32 v70,2013-01-12 01:55:00,
2013-01-11 21:00:00,60.0,60.0,30.10,SSW,202,5.0,15.0,100,-1.02,,,1.04,Weather View 32 v70,2013-01-12 02:00:00,
2013-01-11 21:05:00,59.0,59.0,30.10,NNE,22,3.0,15.0,100,0.02,,,1.04,Weather View 32 v70,2013-01-12 02:05:00,
2013-01-11 21:10:00,60.0,60.0,30.09,SSE,158,1.0,15.0,100,0.02,,,1.04,Weather View 32 v70,2013-01-12 02:10:00,
2013-01-11 21:15:00,60.0,60.0,30.09,SW,225,1.0,15.0,100,0.02,,,1.04,Weather View 32 v70,2013-01-12 02:15:00,
2013-01-11 21:20:00,60.0,60.0,30.09,SW,225,7.0,13.0,100,0.02,,,1.04,Weather View 32 v70,2013-01-12 02:20:00,
2013-01-11 21:25:00,60.0,60.0,30.09,WSW,248,11.0,13.0,100,0.02,,,1.04,Weather View 32 v70,2013-01-12 02:25:00,
2013-01-11 21:30:00,60.0,60.0,30.09,East,90,5.0,13.0,100,0.01,,,1.04,Weather View 32 v70,2013-01-12 02:30:00,
2013-01-11 21:35:00,59.0,59.0,30.09,SSW,202,3.0,13.0,100,0.01,,,1.04,Weather View 32 v70,2013-01-12 02:35:00,
2013-01-11 21:40:00,59.0,59.0,30.09,East,90,1.0,13.0,100,0.01,,,1.04,Weather View 32 v70,2013-01-12 02:40:00,
2013-01-11 21:45:00,59.0,59.0,30.09,WSW,248,5.0,11.0,100,0.01,,,1.04,Weather View 32 v70,2013-01-12 02:45:00,
2013-01-11 21:50:00,59.0,59.0,30.09,WNW,292,2.0,11.0,100,0.01,,,1.04,Weather View 32 v70,2013-01-12 02:50:00,
2013-01-11 21:55:00,59.0,59.0,30.09,SSW,202,6.0,11.0,100,0.00,,,1.04,Weather View 32 v70,2013-01-12 02:55:00,
2013-01-11 22:00:00,59.0,59.0,30.09,SSW,202,5.0,11.0,100,0.00,,,1.04,Weather View 32 v70,2013-01-12 03:00:00,
2013-01-11 22:05:00,59.0,59.0,30.09,SSW,202,7.0,11.0,100,0.00,,,1.04,Weather View 32 v70,2013-01-12 03:05:00,
2013-01-11 22:10:00,59.0,59.0,30.10,ESE,112,9.0,12.0,100,0.00,,,1.04,Weather View 32 v70,2013-01-12 03:10:00,
2013-01-11 22:15:00,59.0,59.0,30.09,WSW,248,7.0,14.0,100,0.00,,,1.04,Weather View 32 v70,2013-01-12 03:15:00,
2013-01-11 22:20:00,59.0,59.0,30.09,East,90,3.0,14.0,100,0.00,,,1.04,Weather View 32 v70,2013-01-12 03:20:00,
2013-01-11 22:25:00,59.0,59.0,30.09,South,180,8.0,14.0,100,0.00,,,1.04,Weather View 32 v70,2013-01-12 03:25:00,
2013-01-11 22:30:00,59.0,59.0,30.09,SW,225,7.0,17.0,100,0.00,,,1.04,Weather View 32 v70,2013-01-12 03:30:00,
2013-01-11 22:35:00,59.0,59.0,30.09,WSW,248,9.0,17.0,100,0.00,,,1.04,Weather View 32 v70,2013-01-12 03:35:00,
2013-01-11 22:40:00,59.0,59.0,30.09,West,270,5.0,17.0,100,0.00,,,1.04,Weather View 32 v70,2013-01-12 03:40:00,
2013-01-11 22:45:00,59.0,59.0,30.10,WSW,248,3.0,17.0,100,0.00,,,1.04,Weather View 32 v70,2013-01-12 03:45:00,
2013-01-11 22:50:00,59.0,59.0,30.10,SSE,158,5.0,18.0,100,0.00,,,1.04,Weather View 32 v70,2013-01-12 03:50:00,
2013-01-11 22:55:00,60.0,60.0,30.09,West,270,8.0,18.0,100,0.00,,,1.04,Weather View 32 v70,2013-01-12 03:55:00,
2013-01-11 23:00:00,60.0,60.0,30.09,WNW,292,3.0,18.0,100,0.00,,,1.04,Weather View 32 v70,2013-01-12 04:00:00,
2013-01-11 23:05:00,60.0,60.0,30.08,WSW,248,5.0,18.0,100,0.00,,,1.04,Weather View 32 v70,2013-01-12 04:05:00,
2013-01-11 23:10:00,60.0,60.0,30.09,ENE,68,1.0,18.0,100,0.00,,,1.04,Weather View 32 v70,2013-01-12 04:10:00,
2013-01-11 23:15:00,60.0,60.0,30.08,ESE,112,4.0,18.0,100,0.00,,,1.04,Weather View 32 v70,2013-01-12 04:15:00,
2013-01-11 23:20:00,60.0,60.0,30.09,SSW,202,8.0,18.0,100,0.00,,,1.04,Weather View 32 v70,2013-01-12 04:20:00,
2013-01-11 23:25:00,60.0,60.0,30.09,ESE,112,5.0,18.0,100,0.00,,,1.04,Weather View 32 v70,2013-01-12 04:25:00,
2013-01-11 23:30:00,60.0,60.0,30.09,SSW,202,6.0,18.0,100,0.00,,,1.04,Weather View 32 v70,2013-01-12 04:30:00,
2013-01-11 23:35:00,60.0,60.0,30.09,West,270,5.0,18.0,100,0.00,,,1.04,Weather View 32 v70,2013-01-12 04:35:00,
2013-01-11 23:40:00,60.0,60.0,30.09,SW,225,6.0,18.0,100,0.00,,,1.04,Weather View 32 v70,2013-01-12 04:40:00,
2013-01-11 23:45:00,61.0,61.0,30.09,SW,225,5.0,18.0,100,0.01,,,1.05,Weather View 32 v70,2013-01-12 04:45:00,
2013-01-11 23:50:00,61.0,61.0,30.09,SSE,158,2.0,16.0,100,0.01,,,1.05,Weather View 32 v70,2013-01-12 04:50:00,
2013-01-11 23:56:00,61.0,61.0,30.09,SE,135,1.0,16.0,100,0.01,,,1.05,Weather View 32 v70,2013-01-12 04:56:00,